Datum Uhrzeit Temperatur Luft Windgeschw. Regen Regen (1h) Temp (1h) Luftdruck Windrichtung Taupunkt Sensor
2021-08-05 19:30:00 20.1 58.0 11.7 0.6 0.0 -1.0 O 0.0 Kombisensor
2021-08-05 19:25:00 20.3 57.0 11.3 0.6 0.0 -0.8 O 0.0 Kombisensor
2021-08-05 19:20:00 20.4 57.0 10.7 0.6 0.0 -0.8 ONO 0.0 Kombisensor
2021-08-05 19:15:00 20.5 57.0 13.1 0.6 0.0 -0.8 ONO 0.0 Kombisensor
2021-08-05 19:10:00 20.6 57.0 11.9 0.6 0.0 -0.8 OSO 0.0 Kombisensor
2021-08-05 19:05:00 20.6 57.0 11.5 0.6 0.0 -0.9 SO 0.0 Kombisensor
2021-08-05 19:00:00 20.9 57.0 11.1 0.6 0.0 -0.7 OSO 0.0 Kombisensor
2021-08-05 18:55:00 21.0 56.0 8.5 0.6 0.0 -0.7 S 0.0 Kombisensor
2021-08-05 18:50:00 21.0 55.0 14.0 0.6 0.0 -0.6 SSO 0.0 Kombisensor
2021-08-05 18:45:00 21.1 55.0 12.4 0.6 0.0 -0.7 OSO 0.0 Kombisensor
2021-08-05 18:40:00 21.2 55.0 10.1 0.6 0.0 -0.7 SO 0.0 Kombisensor
2021-08-05 18:35:00 21.1 55.0 12.7 0.6 0.0 -1.0 O 0.0 Kombisensor
2021-08-05 18:30:00 21.1 54.0 15.4 0.6 0.0 -1.2 O 0.0 Kombisensor
2021-08-05 18:25:00 21.1 54.0 18.1 0.6 0.0 -1.0 O 0.0 Kombisensor
2021-08-05 18:20:00 21.2 54.0 14.7 0.6 0.0 -1.0 OSO 0.0 Kombisensor
2021-08-05 18:15:00 21.3 54.0 15.2 0.6 0.0 -0.9 O 0.0 Kombisensor
2021-08-05 18:10:00 21.4 53.0 23.0 0.6 0.0 -0.9 O 0.0 Kombisensor
2021-08-05 18:05:00 21.5 52.0 11.4 0.6 0.0 -1.0 O 0.0 Kombisensor
2021-08-05 18:00:00 21.6 52.0 12.9 0.6 0.0 -1.4 O 0.0 Kombisensor
2021-08-05 17:55:00 21.7 51.0 17.3 0.6 0.0 -1.8 O 0.0 Kombisensor
2021-08-05 17:50:00 21.6 51.0 14.8 0.6 0.0 -1.8 O 0.0 Kombisensor
2021-08-05 17:45:00 21.8 51.0 17.9 0.6 0.0 -1.8 O 0.0 Kombisensor
2021-08-05 17:40:00 21.9 51.0 19.6 0.6 0.0 -2.2 O 0.0 Kombisensor
2021-08-05 17:35:00 22.1 50.0 14.6 0.6 0.0 -1.4 OSO 0.0 Kombisensor
2021-08-05 17:30:00 22.3 49.0 24.8 0.6 0.0 -1.0 ONO 0.0 Kombisensor
2021-08-05 17:25:00 22.1 49.0 29.1 0.6 0.0 -1.1 O 0.0 Kombisensor
2021-08-05 17:20:00 22.2 50.0 20.2 0.6 0.0 -0.8 O 0.0 Kombisensor
2021-08-05 17:15:00 22.2 50.0 17.5 0.6 0.0 -0.3 ONO 0.0 Kombisensor
2021-08-05 17:10:00 22.3 50.0 22.8 0.6 0.0 -0.1 O 0.0 Kombisensor
2021-08-05 17:05:00 22.5 49.0 17.5 0.6 0.0 -0.5 O 0.0 Kombisensor
2021-08-05 17:00:00 23.0 49.0 21.3 0.6 0.0 0.4 ONO 0.0 Kombisensor
2021-08-05 16:55:00 23.5 48.0 20.9 0.6 0.0 1.8 ONO 0.0 Kombisensor
2021-08-05 16:50:00 23.4 48.0 20.0 0.6 0.0 1.5 O 0.0 Kombisensor
2021-08-05 16:45:00 23.6 49.0 22.7 0.6 0.0 1.5 O 0.0 Kombisensor
2021-08-05 16:40:00 24.1 50.0 15.6 0.6 0.0 1.9 NO 0.0 Kombisensor
2021-08-05 16:35:00 23.5 49.0 23.0 0.6 0.0 1.8 O 0.0 Kombisensor
2021-08-05 16:30:00 23.3 48.0 17.5 0.6 0.0 1.9 O 0.0 Kombisensor
2021-08-05 16:25:00 23.2 48.0 27.5 0.6 0.0 1.7 O 0.0 Kombisensor
2021-08-05 16:20:00 23.0 53.0 19.7 0.6 0.0 1.1 OSO 0.0 Kombisensor
2021-08-05 16:15:00 22.5 52.0 21.5 0.6 0.0 0.5 O 0.0 Kombisensor
2021-08-05 16:10:00 22.4 51.0 25.7 0.6 0.0 -0.2 O 0.0 Kombisensor
2021-08-05 16:05:00 23.0 51.0 22.7 0.6 0.0 0.5 O 0.0 Kombisensor
2021-08-05 16:00:00 22.6 54.0 23.3 0.6 0.0 0.6 O 0.0 Kombisensor
2021-08-05 15:55:00 21.7 55.0 32.5 0.6 0.0 -0.3 ONO 0.0 Kombisensor
2021-08-05 15:50:00 21.9 55.0 22.3 0.6 0.0 0.7 O 0.0 Kombisensor
2021-08-05 15:45:00 22.1 55.0 20.7 0.6 0.0 0.8 ONO 0.0 Kombisensor
2021-08-05 15:40:00 22.2 57.0 20.4 0.6 0.0 1.1 ONO 0.0 Kombisensor
2021-08-05 15:35:00 21.7 58.0 15.1 0.6 0.0 0.6 O 0.0 Kombisensor
2021-08-05 15:30:00 21.4 59.0 23.7 0.6 0.0 0.6 O 0.0 Kombisensor
2021-08-05 15:25:00 21.5 59.0 28.8 0.6 0.0 0.7 ONO 0.0 Kombisensor
2021-08-05 15:20:00 21.9 60.0 18.1 0.6 0.0 1.0 O 0.0 Kombisensor
2021-08-05 15:15:00 22.0 59.0 22.7 0.6 0.0 1.0 ONO 0.0 Kombisensor
2021-08-05 15:10:00 22.6 60.0 17.8 0.6 0.0 2.0 O 0.0 Kombisensor
2021-08-05 15:05:00 22.5 60.0 21.9 0.6 0.0 1.8 ONO 0.0 Kombisensor
2021-08-05 15:00:00 22.0 61.0 20.5 0.6 0.0 1.5 ONO 0.0 Kombisensor
2021-08-05 14:55:00 22.0 61.0 18.8 0.6 0.0 1.5 OSO 0.0 Kombisensor
2021-08-05 14:50:00 21.2 62.0 21.9 0.6 0.0 0.7 ONO 0.0 Kombisensor
2021-08-05 14:45:00 21.3 63.0 18.2 0.6 0.0 1.1 OSO 0.0 Kombisensor
2021-08-05 14:40:00 21.1 62.0 22.1 0.6 0.0 0.9 O 0.0 Kombisensor
2021-08-05 14:35:00 21.1 63.0 21.5 0.6 0.0 0.7 O 0.0 Kombisensor
2021-08-05 14:30:00 20.8 64.0 22.4 0.6 0.0 0.4 ONO 0.0 Kombisensor
2021-08-05 14:25:00 20.8 65.0 29.2 0.6 0.0 0.2 ONO 0.0 Kombisensor
2021-08-05 14:20:00 20.9 65.0 16.8 0.6 0.0 0.4 ONO 0.0 Kombisensor
2021-08-05 14:15:00 21.0 65.0 15.4 0.6 0.0 0.9 O 0.0 Kombisensor
2021-08-05 14:10:00 20.6 66.0 22.9 0.6 0.0 0.8 ONO 0.0 Kombisensor
2021-08-05 14:05:00 20.7 66.0 12.9 0.6 0.0 0.8 O 0.0 Kombisensor
2021-08-05 14:00:00 20.5 67.0 19.9 0.6 0.0 0.8 ONO 0.0 Kombisensor
2021-08-05 13:55:00 20.5 67.0 17.3 0.6 0.0 0.8 ONO 0.0 Kombisensor
2021-08-05 13:50:00 20.5 67.0 20.4 0.6 0.0 1.0 O 0.0 Kombisensor
2021-08-05 13:45:00 20.2 67.0 20.0 0.6 0.0 0.8 O 0.0 Kombisensor
2021-08-05 13:40:00 20.2 67.0 24.8 0.6 0.0 1.0 O 0.0 Kombisensor
2021-08-05 13:35:00 20.4 67.0 18.6 0.6 0.0 1.1 O 0.0 Kombisensor
2021-08-05 13:30:00 20.4 67.0 22.5 0.6 0.0 1.1 ONO 0.0 Kombisensor
2021-08-05 13:25:00 20.6 68.0 21.2 0.6 0.0 1.4 ONO 0.0 Kombisensor
2021-08-05 13:20:00 20.5 68.0 18.3 0.6 0.0 1.6 ONO 0.0 Kombisensor
2021-08-05 13:15:00 20.1 69.0 15.2 0.6 0.0 1.2 O 0.0 Kombisensor
2021-08-05 13:10:00 19.8 69.0 14.6 0.6 0.0 0.8 ONO 0.0 Kombisensor
2021-08-05 13:05:00 19.9 70.0 21.4 0.6 0.0 0.9 ONO 0.0 Kombisensor
2021-08-05 13:00:00 19.7 70.0 17.5 0.6 0.0 0.9 ONO 0.0 Kombisensor
2021-08-05 12:55:00 19.7 70.0 16.5 0.6 0.0 1.0 O 0.0 Kombisensor
2021-08-05 12:50:00 19.5 70.0 19.9 0.6 0.0 0.7 O 0.0 Kombisensor
2021-08-05 12:45:00 19.4 71.0 15.4 0.6 0.0 0.8 ONO 0.0 Kombisensor
2021-08-05 12:40:00 19.2 71.0 21.8 0.6 0.0 0.6 O 0.0 Kombisensor
2021-08-05 12:35:00 19.3 72.0 14.7 0.6 0.0 0.8 ONO 0.0 Kombisensor
2021-08-05 12:30:00 19.3 73.0 14.4 0.6 0.0 0.9 O 0.0 Kombisensor
2021-08-05 12:25:00 19.2 73.0 12.5 0.6 0.0 0.8 O 0.0 Kombisensor
2021-08-05 12:20:00 18.9 74.0 17.3 0.6 0.0 0.6 ONO 0.0 Kombisensor
2021-08-05 12:15:00 18.9 74.0 13.4 0.6 0.0 0.8 NO 0.0 Kombisensor
2021-08-05 12:10:00 19.0 75.0 16.2 0.6 0.0 0.9 ONO 0.0 Kombisensor
2021-08-05 12:05:00 19.0 75.0 18.2 0.6 0.0 0.9 ONO 0.0 Kombisensor
2021-08-05 12:00:00 18.8 76.0 19.3 0.6 0.0 0.6 ONO 0.0 Kombisensor
2021-08-05 11:55:00 18.7 76.0 23.5 0.6 0.0 0.5 ONO 0.0 Kombisensor
2021-08-05 11:50:00 18.8 77.0 24.0 0.6 0.0 0.5 ONO 0.0 Kombisensor
2021-08-05 11:45:00 18.6 77.0 18.1 0.6 0.0 0.3 O 0.0 Kombisensor
2021-08-05 11:40:00 18.6 76.0 18.2 0.6 0.0 0.2 ONO 0.0 Kombisensor
2021-08-05 11:35:00 18.5 76.0 19.5 0.6 0.0 0.3 ONO 0.0 Kombisensor
2021-08-05 11:30:00 18.4 77.0 19.8 0.6 0.0 0.3 ONO 0.0 Kombisensor
2021-08-05 11:25:00 18.4 77.0 15.9 0.6 0.0 0.2 ONO 0.0 Kombisensor
2021-08-05 11:20:00 18.3 77.0 15.7 0.6 0.0 0.2 ONO 0.0 Kombisensor
2021-08-05 11:15:00 18.1 77.0 15.6 0.6 0.0 -0.3 ONO 0.0 Kombisensor
2021-08-05 11:10:00 18.1 77.0 15.6 0.6 0.0 -0.4 ONO 0.0 Kombisensor
2021-08-05 11:05:00 18.1 77.0 13.0 0.6 0.0 -0.1 ONO 0.0 Kombisensor
2021-08-05 11:00:00 18.2 76.0 14.6 0.6 0.0 0.1 ONO 0.0 Kombisensor
2021-08-05 10:55:00 18.2 76.0 14.9 0.6 0.0 0.2 ONO 0.0 Kombisensor
2021-08-05 10:50:00 18.3 75.0 15.7 0.6 0.0 0.4 NO 0.0 Kombisensor
2021-08-05 10:45:00 18.3 75.0 17.5 0.6 0.0 0.3 ONO 0.0 Kombisensor
2021-08-05 10:40:00 18.4 75.0 15.6 0.6 0.0 0.4 ONO 0.0 Kombisensor
2021-08-05 10:35:00 18.2 75.0 14.5 0.6 0.0 0.3 ONO 0.0 Kombisensor
2021-08-05 10:30:00 18.1 75.0 17.7 0.6 0.0 0.2 ONO 0.0 Kombisensor
2021-08-05 10:25:00 18.2 76.0 13.2 0.6 0.0 0.6 ONO 0.0 Kombisensor
2021-08-05 10:20:00 18.1 75.0 12.2 0.6 0.0 0.7 O 0.0 Kombisensor
2021-08-05 10:15:00 18.4 77.0 13.7 0.6 0.0 1.1 ONO 0.0 Kombisensor
2021-08-05 10:10:00 18.5 77.0 10.5 0.6 0.0 1.2 O 0.0 Kombisensor
2021-08-05 10:05:00 18.2 77.0 14.0 0.6 0.0 0.8 O 0.0 Kombisensor
2021-08-05 10:00:00 18.1 80.0 13.3 0.6 0.0 0.8 O 0.0 Kombisensor
2021-08-05 09:55:00 18.0 81.0 11.6 0.6 0.0 0.9 ONO 0.0 Kombisensor
2021-08-05 09:50:00 17.9 80.0 15.9 0.6 0.0 1.2 ONO 0.0 Kombisensor
2021-08-05 09:45:00 18.0 81.0 13.2 0.6 0.0 1.5 O 0.0 Kombisensor
2021-08-05 09:40:00 18.0 81.0 10.3 0.6 0.0 1.6 ONO 0.0 Kombisensor
2021-08-05 09:35:00 17.9 81.0 11.9 0.6 0.0 1.6 NO 0.0 Kombisensor
2021-08-05 09:30:00 17.9 83.0 9.6 0.6 0.0 1.7 ONO 0.0 Kombisensor
2021-08-05 09:25:00 17.6 83.0 14.4 0.6 0.0 1.6 ONO 0.0 Kombisensor
2021-08-05 09:20:00 17.4 83.0 12.9 0.6 0.0 1.5 ONO 0.0 Kombisensor
2021-08-05 09:15:00 17.3 83.0 16.8 0.6 0.0 1.5 ONO 0.0 Kombisensor
2021-08-05 09:10:00 17.3 83.0 12.6 0.6 0.0 1.5 ONO 0.0 Kombisensor
2021-08-05 09:05:00 17.4 84.0 16.6 0.6 0.0 1.7 ONO 0.0 Kombisensor
2021-08-05 09:00:00 17.3 84.0 13.7 0.6 0.0 1.7 NO 0.0 Kombisensor
2021-08-05 08:55:00 17.1 86.0 12.3 0.6 0.0 1.6 NO 0.0 Kombisensor
2021-08-05 08:50:00 16.7 87.0 15.8 0.6 0.0 1.2 ONO 0.0 Kombisensor
2021-08-05 08:45:00 16.5 88.0 14.6 0.6 0.0 1.1 NO 0.0 Kombisensor
2021-08-05 08:40:00 16.4 88.0 8.7 0.6 0.0 1.0 NNO 0.0 Kombisensor
2021-08-05 08:35:00 16.3 89.0 10.7 0.6 0.0 1.0 NNO 0.0 Kombisensor
2021-08-05 08:30:00 16.2 89.0 8.8 0.6 0.0 1.0 N 0.0 Kombisensor
2021-08-05 08:25:00 16.0 89.0 9.1 0.6 0.0 0.8 NNO 0.0 Kombisensor
2021-08-05 08:20:00 15.9 89.0 6.5 0.6 0.0 0.8 NNO 0.0 Kombisensor
2021-08-05 08:15:00 15.8 89.0 10.2 0.6 0.0 0.8 NNO 0.0 Kombisensor
2021-08-05 08:10:00 15.8 89.0 8.7 0.6 0.0 0.8 N 0.0 Kombisensor
2021-08-05 08:05:00 15.7 89.0 12.2 0.6 0.0 0.8 NO 0.0 Kombisensor
2021-08-05 08:00:00 15.6 89.0 10.2 0.6 0.0 0.8 ONO 0.0 Kombisensor
2021-08-05 07:55:00 15.5 89.0 10.2 0.6 0.0 0.8 ONO 0.0 Kombisensor
2021-08-05 07:50:00 15.5 89.0 10.2 0.6 0.0 0.8 NO 0.0 Kombisensor
2021-08-05 07:45:00 15.4 90.0 11.2 0.6 0.0 0.8 NO 0.0 Kombisensor
2021-08-05 07:40:00 15.4 90.0 9.3 0.6 0.0 0.8 NO 0.0 Kombisensor
2021-08-05 07:35:00 15.3 90.0 7.6 0.6 0.0 0.8 NO 0.0 Kombisensor
2021-08-05 07:30:00 15.2 90.0 8.6 0.6 0.0 0.7 NNO 0.0 Kombisensor
2021-08-05 07:25:00 15.2 90.0 8.6 0.6 0.0 0.6 NO 0.0 Kombisensor
2021-08-05 07:20:00 15.1 90.0 8.2 0.6 0.0 0.5 NO 0.0 Kombisensor
2021-08-05 07:15:00 15.0 90.0 7.5 0.6 0.0 0.4 NNO 0.0 Kombisensor
2021-08-05 07:10:00 15.0 90.0 8.3 0.6 0.0 0.4 NO 0.0 Kombisensor
2021-08-05 07:05:00 14.9 90.0 6.0 0.6 0.0 0.3 N 0.0 Kombisensor
2021-08-05 07:00:00 14.8 90.0 5.4 0.6 0.0 0.2 N 0.0 Kombisensor
2021-08-05 06:55:00 14.7 89.0 4.1 0.6 0.0 0.1 NNO 0.0 Kombisensor
2021-08-05 06:50:00 14.7 89.0 7.0 0.6 0.0 -0.1 N 0.0 Kombisensor
2021-08-05 06:45:00 14.6 89.0 7.7 0.6 0.0 -0.2 NNO 0.0 Kombisensor
2021-08-05 06:40:00 14.6 89.0 7.7 0.6 0.0 -0.2 NNO 0.0 Kombisensor
2021-08-05 06:35:00 14.5 89.0 7.1 0.6 0.0 -0.2 NNO 0.0 Kombisensor
2021-08-05 06:30:00 14.5 89.0 6.8 0.6 0.0 -0.2 NNO 0.0 Kombisensor
2021-08-05 06:25:00 14.6 89.0 5.8 0.6 0.0 -0.1 NO 0.0 Kombisensor
2021-08-05 06:20:00 14.6 89.0 5.2 0.6 0.0 -0.1 O 0.0 Kombisensor
2021-08-05 06:15:00 14.6 89.0 6.2 0.6 0.0 -0.1 NO 0.0 Kombisensor
2021-08-05 06:10:00 14.6 89.0 7.1 0.6 0.0 -0.1 ONO 0.0 Kombisensor
2021-08-05 06:05:00 14.6 89.0 6.0 0.6 0.0 -0.2 NNO 0.0 Kombisensor
2021-08-05 06:00:00 14.6 89.0 10.6 0.6 0.0 -0.3 NO 0.0 Kombisensor
2021-08-05 05:55:00 14.6 89.0 12.4 0.6 0.0 -0.4 ONO 0.0 Kombisensor
2021-08-05 05:50:00 14.8 90.0 12.1 0.6 0.0 -0.4 O 0.0 Kombisensor
2021-08-05 05:45:00 14.8 90.0 12.0 0.6 0.0 -0.7 ONO 0.0 Kombisensor
2021-08-05 05:40:00 14.8 90.0 12.1 0.6 0.0 -0.8 O 0.0 Kombisensor
2021-08-05 05:35:00 14.7 90.0 9.9 0.6 0.0 -1.0 ONO 0.0 Kombisensor
2021-08-05 05:30:00 14.7 90.0 10.8 0.6 0.0 -0.9 ONO 0.0 Kombisensor
2021-08-05 05:25:00 14.7 89.0 9.7 0.6 0.0 -0.8 ONO 0.0 Kombisensor
2021-08-05 05:20:00 14.7 89.0 12.5 0.6 0.0 -0.6 ONO 0.0 Kombisensor
2021-08-05 05:15:00 14.7 88.0 9.7 0.6 0.0 -0.6 O 0.0 Kombisensor
2021-08-05 05:10:00 14.7 88.0 7.9 0.6 0.0 -0.3 O 0.0 Kombisensor
2021-08-05 05:05:00 14.8 87.0 9.3 0.6 0.0 0.1 O 0.0 Kombisensor
2021-08-05 05:00:00 14.9 87.0 5.7 0.6 0.0 0.4 OSO 0.0 Kombisensor
2021-08-05 04:55:00 15.0 86.0 4.0 0.6 0.0 0.6 O 0.0 Kombisensor
2021-08-05 04:50:00 15.2 86.0 5.0 0.6 0.0 1.0 SO 0.0 Kombisensor
2021-08-05 04:45:00 15.5 85.0 5.4 0.6 0.0 1.4 SO 0.0 Kombisensor
2021-08-05 04:40:00 15.6 84.0 6.1 0.6 0.0 1.6 SSO 0.0 Kombisensor
2021-08-05 04:35:00 15.7 82.0 0.0 0.6 0.0 1.9 OSO 0.0 Kombisensor
2021-08-05 04:30:00 15.6 82.0 10.2 0.6 0.0 2.1 O 0.0 Kombisensor
2021-08-05 04:25:00 15.5 82.0 7.3 0.6 0.0 2.1 NO 0.0 Kombisensor
2021-08-05 04:20:00 15.3 83.0 9.4 0.6 0.0 2.0 NO 0.0 Kombisensor
2021-08-05 04:15:00 15.3 83.0 9.4 0.6 0.0 2.0 ONO 0.0 Kombisensor
2021-08-05 04:10:00 15.0 84.0 7.1 0.6 0.0 1.7 NO 0.0 Kombisensor
2021-08-05 04:05:00 14.7 85.0 6.5 0.6 0.0 1.5 NNO 0.0 Kombisensor
2021-08-05 04:00:00 14.5 85.0 0.0 0.6 0.0 1.4 NNO 0.0 Kombisensor
2021-08-05 03:55:00 14.4 85.0 0.0 0.6 0.0 1.5 NNW 0.0 Kombisensor
2021-08-05 03:50:00 14.2 85.0 0.0 0.6 0.0 1.5 N 0.0 Kombisensor
2021-08-05 03:45:00 14.1 84.0 4.0 0.6 0.0 1.6 NO 0.0 Kombisensor
2021-08-05 03:40:00 14.0 84.0 0.0 0.6 0.0 1.7 NNO 0.0 Kombisensor
2021-08-05 03:35:00 13.8 84.0 5.7 0.6 0.0 1.8 N 0.0 Kombisensor
2021-08-05 03:30:00 13.5 84.0 0.0 0.6 0.0 1.7 NO 0.0 Kombisensor
2021-08-05 03:25:00 13.4 84.0 0.0 0.6 0.0 1.9 N 0.0 Kombisensor
2021-08-05 03:20:00 13.3 84.0 0.0 0.6 0.0 1.9 NNW 0.0 Kombisensor
2021-08-05 03:15:00 13.3 83.0 0.0 0.6 0.0 1.9 NW 0.0 Kombisensor
2021-08-05 03:10:00 13.3 83.0 0.0 0.6 0.0 1.9 NW 0.0 Kombisensor
2021-08-05 03:05:00 13.2 84.0 0.0 0.6 0.0 1.7 NW 0.0 Kombisensor
2021-08-05 03:00:00 13.1 84.0 0.0 0.6 0.0 1.5 NW 0.0 Kombisensor
2021-08-05 02:55:00 12.9 84.0 0.0 0.6 0.0 1.3 NW 0.0 Kombisensor
2021-08-05 02:50:00 12.7 84.0 0.0 0.6 0.0 1.1 NW 0.0 Kombisensor
2021-08-05 02:45:00 12.5 85.0 0.0 0.6 0.0 0.9 NW 0.0 Kombisensor
2021-08-05 02:40:00 12.3 85.0 0.0 0.6 0.0 0.7 NW 0.0 Kombisensor
2021-08-05 02:35:00 12.0 86.0 0.0 0.6 0.0 0.3 NW 0.0 Kombisensor
2021-08-05 02:30:00 11.8 86.0 0.0 0.6 0.0 0.1 NW 0.0 Kombisensor
2021-08-05 02:25:00 11.5 85.0 0.0 0.6 0.0 -0.2 NW 0.0 Kombisensor
2021-08-05 02:20:00 11.4 85.0 0.0 0.6 0.0 -0.3 NW 0.0 Kombisensor
2021-08-05 02:15:00 11.4 85.0 0.0 0.6 0.0 -0.3 NW 0.0 Kombisensor
2021-08-05 02:10:00 11.4 84.0 0.0 0.6 0.0 -0.3 NW 0.0 Kombisensor
2021-08-05 02:05:00 11.5 84.0 0.0 0.6 0.0 -0.3 NW 0.0 Kombisensor
2021-08-05 02:00:00 11.6 84.0 0.0 0.6 0.0 -0.2 NW 0.0 Kombisensor
2021-08-05 01:55:00 11.6 84.0 0.0 0.6 0.0 -0.1 NW 0.0 Kombisensor
2021-08-05 01:50:00 11.6 84.0 0.0 0.6 0.0 0.2 NW 0.0 Kombisensor
2021-08-05 01:45:00 11.6 84.0 0.0 0.6 0.0 0.1 NW 0.0 Kombisensor
2021-08-05 01:40:00 11.6 84.0 0.0 0.6 0.0 0.1 NW 0.0 Kombisensor
2021-08-05 01:35:00 11.7 84.0 0.0 0.6 0.0 0.1 NW 0.0 Kombisensor
2021-08-05 01:30:00 11.7 83.0 0.0 0.6 0.0 0.0 NW 0.0 Kombisensor
2021-08-05 01:25:00 11.7 84.0 0.0 0.6 0.0 0.0 NW 0.0 Kombisensor
2021-08-05 01:20:00 11.7 84.0 0.0 0.6 0.0 0.0 NW 0.0 Kombisensor
2021-08-05 01:15:00 11.7 83.0 0.0 0.6 0.0 -0.1 NW 0.0 Kombisensor
2021-08-05 01:10:00 11.7 83.0 0.0 0.6 0.0 -0.2 NW 0.0 Kombisensor
2021-08-05 01:05:00 11.8 83.0 0.0 0.6 0.0 -0.2 NW 0.0 Kombisensor
2021-08-05 01:00:00 11.8 84.0 0.0 0.6 0.0 -0.3 NW 0.0 Kombisensor
2021-08-05 00:55:00 11.7 84.0 0.0 0.6 0.0 0.3 NW 0.0 Kombisensor
2021-08-05 00:50:00 11.4 84.0 0.0 0.6 0.0 -0.1 NW 0.0 Kombisensor
2021-08-05 00:45:00 11.5 84.0 0.0 0.6 0.0 0.0 NW 0.0 Kombisensor
2021-08-05 00:40:00 11.5 83.0 0.0 0.6 0.0 -0.1 NW 0.0 Kombisensor
2021-08-05 00:35:00 11.6 83.0 0.0 0.6 0.0 -0.1 NW 0.0 Kombisensor
2021-08-05 00:30:00 11.7 83.0 0.0 0.6 0.0 0.0 NW 0.0 Kombisensor
2021-08-05 00:25:00 11.7 83.0 0.0 0.6 0.0 0.0 NW 0.0 Kombisensor
2021-08-05 00:20:00 11.7 83.0 0.0 0.6 0.0 -0.1 NNW 0.0 Kombisensor
2021-08-05 00:15:00 11.8 82.0 0.0 0.6 0.0 -0.1 NNW 0.0 Kombisensor
2021-08-05 00:10:00 11.9 82.0 0.0 0.6 0.0 -0.1 NNW 0.0 Kombisensor
2021-08-05 00:05:00 12.0 82.0 0.0 0.6 0.0 -0.1 NNW 0.0 Kombisensor
2021-08-05 00:00:00 12.1 81.0 0.0 0.6 0.0 -1.3 NNW 0.0 Kombisensor